Detall de PIREP

Printer-friendly versionPDF version

[2011/12/03 15:41:00]
Flight IATA:CT1001
Pilot Number:026
Company ICAO:CAT
Aircraft Type:DC85/A
PAX:132
Departing Airport: LFMP
Destination Airport: EGGD
Alternate Airport:EGHI
Online: VATSIM
Route:ORBIL/N0290F180 G36 GAI/N0390F240 UT24 SECHE UN863 TIRAV UY87 TERPO UM616 KORER UN482 POMTA UN864 BHD
Flight Level:F340
No Slew and time accel
No pause
Crash detect
Detect pilot in Cockpit between each 30 and 45 minutes
15:41 Zero fuel Weight: 178639 Lbs, Fuel Weight: 38990 Lbs
15:41 VATSIM:LFMP 031500Z 32010KT 290V350 CAVOK 14/02 Q1022 NOSIG
15:41 VATSIM:EGGD 031520Z 27014KT 9999 FEW030 SCT042 09/05 Q1005
15:41 VOICE CATALONIAN / OPENSKIES 2011 FLIGHT ID CAT001
15:51 Parking Brakes off
15:56 Take-off
15:56 Take off Weight: 216712 Lbs
15:56 Wind: 324º @ 010 Knots Heading: 328º
15:56 POS N42º 45´ 04´´ E002º 51´ 50´´
15:56 Flaps:2 at 164 Knots
15:56 Gear Up: 167 Knots
15:56 Flaps:1 at 181 Knots
15:57 Flaps:0 at 176 Knots
16:11 Wind:238º@017 Knots Heading: 325º Ground Speed: 383 Knots Altitude 17057 ft
16:26 Wind:212º@040 Knots Heading: 349º Ground Speed: 430 Knots Altitude 32582 ft
16:29 TOC
16:29 Fuel Weight: 29849 Lb
16:41 Wind:259º@051 Knots Heading: 315º Ground Speed: 449 Knots Altitude 34064 ft
16:56 Wind:290º@037 Knots Heading: 276º Ground Speed: 443 Knots Altitude 33982 ft
17:11 Wind:269º@055 Knots Heading: 355º Ground Speed: 484 Knots Altitude 33923 ft
17:11 TOD
17:11 Fuel Weight: 20390 Lb
17:26 Wind:262º@026 Knots Heading: 001º Ground Speed: 354 Knots Altitude 10853 ft
17:38 Flaps:1 at 188 Knots
17:39 Gear Down: 168 Knots
17:40 Flaps:2 at 169 Knots
17:40 Flaps:3 at 159 Knots
17:41 Wind:266º@013 Knots Heading: 267º Ground Speed: 133 Knots Altitude 1026 ft
17:41 Flaps:4 at 147 Knots
17:41 Flaps:5 at 147 Knots
17:41TouchDown:Rate -290 ft/min Speed: 126 Knots
17:42 VATSIM:EGGD 031720Z 26013KT 9999 BKN043 08/05 Q1005
17:42 Land
17:42 Wind:266º@013 Knots
17:42 Heading: 267º
17:42 Flight Duration: 01:46
17:42 Landing Weight: 196093 Lbs
17:42 POS N51º 22´ 56´´ W002º 43´ 31´´
17:46 Parking brakes on
17:46 Block to Block Duration: 01:55
17:46 Final Fuel: 16973 Lbls
17:46 Spent Fuel: 22017 Lbls
17:46 Flight Length: 676 NM
17:46 TOD Land Length: 160 NM

Exportar CSV

Powered by Drupal - Modified by Danger4k